sensor_id;sensor_type;location;lat;lon;timestamp;P1;durP1;ratioP1;P2;durP2;ratioP2
26858;SDS011;14429;48.346;16.338;2022-07-30T00:02:05;4.15;;;2.97;;
26858;SDS011;14429;48.346;16.338;2022-07-30T00:04:30;5.28;;;3.28;;
26858;SDS011;14429;48.346;16.338;2022-07-30T00:06:56;2.75;;;2.13;;
26858;SDS011;14429;48.346;16.338;2022-07-30T00:09:21;4.90;;;2.70;;
26858;SDS011;14429;48.346;16.338;2022-07-30T00:11:47;3.40;;;2.45;;
26858;SDS011;14429;48.346;16.338;2022-07-30T00:14:12;4.35;;;2.80;;
26858;SDS011;14429;48.346;16.338;2022-07-30T00:16:39;3.90;;;2.60;;
26858;SDS011;14429;48.346;16.338;2022-07-30T00:19:05;3.30;;;2.75;;
26858;SDS011;14429;48.346;16.338;2022-07-30T00:21:30;3.33;;;2.45;;
26858;SDS011;14429;48.346;16.338;2022-07-30T00:23:56;2.10;;;1.75;;
26858;SDS011;14429;48.346;16.338;2022-07-30T00:26:21;3.25;;;2.25;;
26858;SDS011;14429;48.346;16.338;2022-07-30T00:28:47;2.45;;;2.13;;
26858;SDS011;14429;48.346;16.338;2022-07-30T00:31:12;2.97;;;2.10;;
26858;SDS011;14429;48.346;16.338;2022-07-30T00:33:39;3.35;;;2.42;;
26858;SDS011;14429;48.346;16.338;2022-07-30T00:36:04;3.17;;;1.88;;
26858;SDS011;14429;48.346;16.338;2022-07-30T00:38:30;2.22;;;2.00;;
26858;SDS011;14429;48.346;16.338;2022-07-30T00:40:55;2.58;;;1.60;;
26858;SDS011;14429;48.346;16.338;2022-07-30T00:43:21;2.50;;;2.28;;
26858;SDS011;14429;48.346;16.338;2022-07-30T00:45:46;3.65;;;2.40;;
26858;SDS011;14429;48.346;16.338;2022-07-30T00:48:13;2.72;;;1.88;;
26858;SDS011;14429;48.346;16.338;2022-07-30T00:50:40;4.97;;;2.35;;
26858;SDS011;14429;48.346;16.338;2022-07-30T00:53:06;2.10;;;1.88;;
26858;SDS011;14429;48.346;16.338;2022-07-30T00:55:32;2.78;;;2.25;;
26858;SDS011;14429;48.346;16.338;2022-07-30T00:57:58;3.53;;;2.40;;
26858;SDS011;14429;48.346;16.338;2022-07-30T01:00:24;2.40;;;1.77;;
26858;SDS011;14429;48.346;16.338;2022-07-30T01:02:50;1.95;;;1.77;;
26858;SDS011;14429;48.346;16.338;2022-07-30T01:05:15;5.30;;;2.05;;
26858;SDS011;14429;48.346;16.338;2022-07-30T01:07:42;1.38;;;0.93;;
26858;SDS011;14429;48.346;16.338;2022-07-30T01:10:09;2.95;;;1.95;;
26858;SDS011;14429;48.346;16.338;2022-07-30T01:12:38;2.08;;;1.73;;
26858;SDS011;14429;48.346;16.338;2022-07-30T01:15:05;2.05;;;1.30;;
26858;SDS011;14429;48.346;16.338;2022-07-30T01:17:32;2.35;;;1.40;;
26858;SDS011;14429;48.346;16.338;2022-07-30T01:19:59;2.53;;;1.90;;
26858;SDS011;14429;48.346;16.338;2022-07-30T01:22:32;1.90;;;1.70;;
26858;SDS011;14429;48.346;16.338;2022-07-30T01:25:07;2.15;;;1.83;;
26858;SDS011;14429;48.346;16.338;2022-07-30T01:27:42;1.60;;;1.50;;
26858;SDS011;14429;48.346;16.338;2022-07-30T01:30:12;2.17;;;1.77;;
26858;SDS011;14429;48.346;16.338;2022-07-30T01:32:40;2.20;;;1.50;;
26858;SDS011;14429;48.346;16.338;2022-07-30T01:35:08;2.78;;;1.95;;
26858;SDS011;14429;48.346;16.338;2022-07-30T01:37:35;3.40;;;1.10;;
26858;SDS011;14429;48.346;16.338;2022-07-30T01:40:02;3.08;;;1.00;;
26858;SDS011;14429;48.346;16.338;2022-07-30T01:42:29;0.77;;;0.77;;
26858;SDS011;14429;48.346;16.338;2022-07-30T01:44:58;1.55;;;0.95;;
26858;SDS011;14429;48.346;16.338;2022-07-30T01:47:24;1.75;;;1.60;;
26858;SDS011;14429;48.346;16.338;2022-07-30T01:49:52;1.40;;;1.10;;
26858;SDS011;14429;48.346;16.338;2022-07-30T01:52:20;2.03;;;1.35;;
26858;SDS011;14429;48.346;16.338;2022-07-30T01:54:49;2.30;;;1.40;;
26858;SDS011;14429;48.346;16.338;2022-07-30T01:57:16;1.77;;;1.30;;
26858;SDS011;14429;48.346;16.338;2022-07-30T01:59:44;1.30;;;1.20;;
26858;SDS011;14429;48.346;16.338;2022-07-30T02:02:14;1.48;;;1.10;;
26858;SDS011;14429;48.346;16.338;2022-07-30T02:04:40;2.05;;;1.15;;
26858;SDS011;14429;48.346;16.338;2022-07-30T02:07:08;1.75;;;1.60;;
26858;SDS011;14429;48.346;16.338;2022-07-30T02:09:45;2.10;;;1.27;;
26858;SDS011;14429;48.346;16.338;2022-07-30T02:12:17;2.05;;;1.10;;
26858;SDS011;14429;48.346;16.338;2022-07-30T02:14:46;1.63;;;1.25;;
26858;SDS011;14429;48.346;16.338;2022-07-30T02:17:17;1.55;;;1.20;;
26858;SDS011;14429;48.346;16.338;2022-07-30T02:19:46;2.47;;;1.50;;
26858;SDS011;14429;48.346;16.338;2022-07-30T02:22:15;1.50;;;1.40;;
26858;SDS011;14429;48.346;16.338;2022-07-30T02:24:43;1.52;;;1.00;;
26858;SDS011;14429;48.346;16.338;2022-07-30T02:27:11;1.52;;;1.25;;
26858;SDS011;14429;48.346;16.338;2022-07-30T02:29:39;2.03;;;1.50;;
26858;SDS011;14429;48.346;16.338;2022-07-30T02:32:07;1.60;;;1.20;;
26858;SDS011;14429;48.346;16.338;2022-07-30T02:34:36;2.15;;;1.58;;
26858;SDS011;14429;48.346;16.338;2022-07-30T02:37:04;1.30;;;1.20;;
26858;SDS011;14429;48.346;16.338;2022-07-30T02:39:33;1.70;;;1.00;;
26858;SDS011;14429;48.346;16.338;2022-07-30T02:42:00;1.95;;;1.60;;
26858;SDS011;14429;48.346;16.338;2022-07-30T02:44:27;1.58;;;1.20;;
26858;SDS011;14429;48.346;16.338;2022-07-30T02:46:55;1.88;;;1.48;;
26858;SDS011;14429;48.346;16.338;2022-07-30T02:49:23;5.53;;;1.25;;
26858;SDS011;14429;48.346;16.338;2022-07-30T02:51:51;1.25;;;1.15;;
26858;SDS011;14429;48.346;16.338;2022-07-30T02:54:19;2.08;;;1.40;;
26858;SDS011;14429;48.346;16.338;2022-07-30T02:56:46;1.60;;;1.20;;
26858;SDS011;14429;48.346;16.338;2022-07-30T02:59:14;1.10;;;1.00;;
26858;SDS011;14429;48.346;16.338;2022-07-30T03:01:41;1.42;;;1.10;;
26858;SDS011;14429;48.346;16.338;2022-07-30T03:04:09;1.17;;;1.08;;
26858;SDS011;14429;48.346;16.338;2022-07-30T03:06:36;1.30;;;1.20;;
26858;SDS011;14429;48.346;16.338;2022-07-30T03:09:05;1.40;;;1.30;;
26858;SDS011;14429;48.346;16.338;2022-07-30T03:11:33;1.55;;;1.45;;
26858;SDS011;14429;48.346;16.338;2022-07-30T03:13:59;2.10;;;1.20;;
26858;SDS011;14429;48.346;16.338;2022-07-30T03:16:25;1.38;;;1.10;;
26858;SDS011;14429;48.346;16.338;2022-07-30T03:18:54;5.30;;;1.48;;
26858;SDS011;14429;48.346;16.338;2022-07-30T03:21:22;2.28;;;1.42;;
26858;SDS011;14429;48.346;16.338;2022-07-30T03:23:50;1.50;;;1.30;;
26858;SDS011;14429;48.346;16.338;2022-07-30T03:26:20;1.70;;;1.40;;
26858;SDS011;14429;48.346;16.338;2022-07-30T03:28:47;1.70;;;1.60;;
26858;SDS011;14429;48.346;16.338;2022-07-30T03:31:14;2.95;;;1.30;;
26858;SDS011;14429;48.346;16.338;2022-07-30T03:33:41;1.45;;;1.13;;
26858;SDS011;14429;48.346;16.338;2022-07-30T03:36:07;1.20;;;1.10;;
26858;SDS011;14429;48.346;16.338;2022-07-30T03:38:36;1.42;;;1.13;;
26858;SDS011;14429;48.346;16.338;2022-07-30T03:41:03;1.80;;;1.48;;
26858;SDS011;14429;48.346;16.338;2022-07-30T03:43:31;3.22;;;1.30;;
26858;SDS011;14429;48.346;16.338;2022-07-30T03:45:57;1.77;;;1.40;;
26858;SDS011;14429;48.346;16.338;2022-07-30T03:48:25;1.73;;;1.40;;
26858;SDS011;14429;48.346;16.338;2022-07-30T03:50:51;1.50;;;1.15;;
26858;SDS011;14429;48.346;16.338;2022-07-30T03:53:18;3.72;;;1.50;;
26858;SDS011;14429;48.346;16.338;2022-07-30T03:55:44;2.08;;;1.33;;
26858;SDS011;14429;48.346;16.338;2022-07-30T03:58:10;1.55;;;1.30;;
26858;SDS011;14429;48.346;16.338;2022-07-30T04:00:38;1.83;;;1.33;;
26858;SDS011;14429;48.346;16.338;2022-07-30T04:03:04;3.42;;;1.23;;
26858;SDS011;14429;48.346;16.338;2022-07-30T04:05:30;1.67;;;1.42;;
26858;SDS011;14429;48.346;16.338;2022-07-30T04:07:55;2.05;;;1.70;;
26858;SDS011;14429;48.346;16.338;2022-07-30T04:10:21;1.55;;;1.42;;
26858;SDS011;14429;48.346;16.338;2022-07-30T04:12:46;1.38;;;1.17;;
26858;SDS011;14429;48.346;16.338;2022-07-30T04:15:12;1.67;;;1.38;;
26858;SDS011;14429;48.346;16.338;2022-07-30T04:17:40;1.33;;;1.23;;
26858;SDS011;14429;48.346;16.338;2022-07-30T04:20:11;1.48;;;1.38;;
26858;SDS011;14429;48.346;16.338;2022-07-30T04:22:40;1.23;;;1.10;;
26858;SDS011;14429;48.346;16.338;2022-07-30T04:25:07;1.58;;;1.38;;
26858;SDS011;14429;48.346;16.338;2022-07-30T04:27:33;1.40;;;1.30;;
26858;SDS011;14429;48.346;16.338;2022-07-30T04:30:00;1.58;;;1.48;;
26858;SDS011;14429;48.346;16.338;2022-07-30T04:32:27;1.63;;;1.50;;
26858;SDS011;14429;48.346;16.338;2022-07-30T04:34:54;1.90;;;1.35;;
26858;SDS011;14429;48.346;16.338;2022-07-30T04:37:21;2.25;;;1.67;;
26858;SDS011;14429;48.346;16.338;2022-07-30T04:39:47;2.15;;;1.67;;
26858;SDS011;14429;48.346;16.338;2022-07-30T04:42:13;1.80;;;1.20;;
26858;SDS011;14429;48.346;16.338;2022-07-30T04:44:38;2.53;;;1.88;;
26858;SDS011;14429;48.346;16.338;2022-07-30T04:47:04;1.92;;;1.40;;
26858;SDS011;14429;48.346;16.338;2022-07-30T04:49:29;1.48;;;1.38;;
26858;SDS011;14429;48.346;16.338;2022-07-30T04:51:58;2.53;;;1.42;;
26858;SDS011;14429;48.346;16.338;2022-07-30T04:54:24;2.97;;;1.60;;
26858;SDS011;14429;48.346;16.338;2022-07-30T04:56:52;1.83;;;1.55;;
26858;SDS011;14429;48.346;16.338;2022-07-30T04:59:18;3.05;;;1.63;;
26858;SDS011;14429;48.346;16.338;2022-07-30T05:01:47;1.10;;;0.98;;
26858;SDS011;14429;48.346;16.338;2022-07-30T05:04:14;6.30;;;2.00;;
26858;SDS011;14429;48.346;16.338;2022-07-30T05:06:42;1.88;;;1.55;;
26858;SDS011;14429;48.346;16.338;2022-07-30T05:09:10;2.92;;;1.70;;
26858;SDS011;14429;48.346;16.338;2022-07-30T05:11:35;2.70;;;1.40;;
26858;SDS011;14429;48.346;16.338;2022-07-30T05:14:01;2.65;;;1.50;;
26858;SDS011;14429;48.346;16.338;2022-07-30T05:16:26;2.50;;;1.77;;
26858;SDS011;14429;48.346;16.338;2022-07-30T05:18:52;3.00;;;1.80;;
26858;SDS011;14429;48.346;16.338;2022-07-30T05:21:18;1.20;;;1.10;;
26858;SDS011;14429;48.346;16.338;2022-07-30T05:23:43;2.78;;;2.17;;
26858;SDS011;14429;48.346;16.338;2022-07-30T05:26:10;1.60;;;1.23;;
26858;SDS011;14429;48.346;16.338;2022-07-30T05:28:35;1.40;;;1.30;;
26858;SDS011;14429;48.346;16.338;2022-07-30T05:31:01;2.97;;;1.70;;
26858;SDS011;14429;48.346;16.338;2022-07-30T05:33:26;1.80;;;1.30;;
26858;SDS011;14429;48.346;16.338;2022-07-30T05:35:52;2.75;;;1.60;;
26858;SDS011;14429;48.346;16.338;2022-07-30T05:38:17;1.42;;;1.27;;
26858;SDS011;14429;48.346;16.338;2022-07-30T05:40:43;1.20;;;1.10;;
26858;SDS011;14429;48.346;16.338;2022-07-30T05:43:10;1.65;;;1.20;;
26858;SDS011;14429;48.346;16.338;2022-07-30T05:45:35;2.00;;;1.20;;
26858;SDS011;14429;48.346;16.338;2022-07-30T05:48:01;1.40;;;1.30;;
26858;SDS011;14429;48.346;16.338;2022-07-30T05:50:26;1.80;;;1.17;;
26858;SDS011;14429;48.346;16.338;2022-07-30T05:52:52;1.65;;;1.40;;
26858;SDS011;14429;48.346;16.338;2022-07-30T05:55:17;1.80;;;1.65;;
26858;SDS011;14429;48.346;16.338;2022-07-30T05:57:43;1.30;;;1.10;;
26858;SDS011;14429;48.346;16.338;2022-07-30T06:00:10;2.08;;;1.48;;
26858;SDS011;14429;48.346;16.338;2022-07-30T06:02:38;1.75;;;1.60;;
26858;SDS011;14429;48.346;16.338;2022-07-30T06:05:03;1.92;;;1.20;;
26858;SDS011;14429;48.346;16.338;2022-07-30T06:07:29;2.80;;;1.10;;
26858;SDS011;14429;48.346;16.338;2022-07-30T06:09:55;1.83;;;1.20;;
26858;SDS011;14429;48.346;16.338;2022-07-30T06:12:21;2.45;;;1.05;;
26858;SDS011;14429;48.346;16.338;2022-07-30T06:14:46;1.83;;;1.13;;
26858;SDS011;14429;48.346;16.338;2022-07-30T06:17:13;1.40;;;1.30;;
26858;SDS011;14429;48.346;16.338;2022-07-30T06:19:38;1.95;;;1.25;;
26858;SDS011;14429;48.346;16.338;2022-07-30T06:22:04;1.45;;;1.17;;
26858;SDS011;14429;48.346;16.338;2022-07-30T06:24:29;2.72;;;1.30;;
26858;SDS011;14429;48.346;16.338;2022-07-30T06:26:55;1.52;;;1.23;;
26858;SDS011;14429;48.346;16.338;2022-07-30T06:29:20;1.75;;;1.60;;
26858;SDS011;14429;48.346;16.338;2022-07-30T06:31:46;1.95;;;1.15;;
26858;SDS011;14429;48.346;16.338;2022-07-30T06:34:13;1.20;;;1.10;;
26858;SDS011;14429;48.346;16.338;2022-07-30T06:36:38;3.40;;;1.00;;
26858;SDS011;14429;48.346;16.338;2022-07-30T06:39:04;1.75;;;1.23;;
26858;SDS011;14429;48.346;16.338;2022-07-30T06:41:29;1.27;;;1.02;;
26858;SDS011;14429;48.346;16.338;2022-07-30T06:43:55;0.90;;;0.90;;
26858;SDS011;14429;48.346;16.338;2022-07-30T06:46:20;1.38;;;1.20;;
26858;SDS011;14429;48.346;16.338;2022-07-30T06:48:45;1.85;;;1.40;;
26858;SDS011;14429;48.346;16.338;2022-07-30T06:51:12;2.92;;;1.00;;
26858;SDS011;14429;48.346;16.338;2022-07-30T06:53:38;1.20;;;1.10;;
26858;SDS011;14429;48.346;16.338;2022-07-30T06:56:03;1.13;;;1.02;;
26858;SDS011;14429;48.346;16.338;2022-07-30T06:58:29;1.73;;;1.20;;
26858;SDS011;14429;48.346;16.338;2022-07-30T07:00:54;5.00;;;1.02;;
26858;SDS011;14429;48.346;16.338;2022-07-30T07:03:20;1.58;;;1.23;;
26858;SDS011;14429;48.346;16.338;2022-07-30T07:05:45;1.27;;;0.95;;
26858;SDS011;14429;48.346;16.338;2022-07-30T07:08:12;3.47;;;1.10;;
26858;SDS011;14429;48.346;16.338;2022-07-30T07:10:37;1.15;;;1.05;;
26858;SDS011;14429;48.346;16.338;2022-07-30T07:13:03;1.15;;;1.00;;
26858;SDS011;14429;48.346;16.338;2022-07-30T07:15:28;2.13;;;1.20;;
26858;SDS011;14429;48.346;16.338;2022-07-30T07:17:54;1.60;;;1.30;;
26858;SDS011;14429;48.346;16.338;2022-07-30T07:20:19;2.03;;;1.00;;
26858;SDS011;14429;48.346;16.338;2022-07-30T07:22:45;1.85;;;1.05;;
26858;SDS011;14429;48.346;16.338;2022-07-30T07:25:12;1.08;;;0.93;;
26858;SDS011;14429;48.346;16.338;2022-07-30T07:27:37;1.52;;;1.10;;
26858;SDS011;14429;48.346;16.338;2022-07-30T07:30:03;0.95;;;0.93;;
26858;SDS011;14429;48.346;16.338;2022-07-30T07:32:30;1.15;;;1.05;;
26858;SDS011;14429;48.346;16.338;2022-07-30T07:34:56;1.15;;;1.02;;
26858;SDS011;14429;48.346;16.338;2022-07-30T07:37:21;1.52;;;1.17;;
26858;SDS011;14429;48.346;16.338;2022-07-30T07:39:47;2.40;;;1.30;;
26858;SDS011;14429;48.346;16.338;2022-07-30T07:42:14;1.58;;;1.15;;
26858;SDS011;14429;48.346;16.338;2022-07-30T07:44:39;1.30;;;1.13;;
26858;SDS011;14429;48.346;16.338;2022-07-30T07:47:05;2.25;;;1.20;;
26858;SDS011;14429;48.346;16.338;2022-07-30T07:49:30;1.17;;;1.08;;
26858;SDS011;14429;48.346;16.338;2022-07-30T07:51:56;1.38;;;1.20;;
26858;SDS011;14429;48.346;16.338;2022-07-30T07:54:21;1.38;;;1.23;;
26858;SDS011;14429;48.346;16.338;2022-07-30T07:56:47;1.02;;;0.98;;
26858;SDS011;14429;48.346;16.338;2022-07-30T07:59:14;1.98;;;1.00;;
26858;SDS011;14429;48.346;16.338;2022-07-30T08:01:39;1.00;;;0.95;;
26858;SDS011;14429;48.346;16.338;2022-07-30T08:04:05;2.38;;;1.05;;
26858;SDS011;14429;48.346;16.338;2022-07-30T08:06:30;3.08;;;1.35;;
26858;SDS011;14429;48.346;16.338;2022-07-30T08:08:56;1.40;;;1.30;;
26858;SDS011;14429;48.346;16.338;2022-07-30T08:11:21;1.15;;;1.05;;
26858;SDS011;14429;48.346;16.338;2022-07-30T08:13:46;2.53;;;1.27;;
26858;SDS011;14429;48.346;16.338;2022-07-30T08:16:13;1.13;;;0.85;;
26858;SDS011;14429;48.346;16.338;2022-07-30T08:18:39;1.20;;;0.93;;
26858;SDS011;14429;48.346;16.338;2022-07-30T08:21:04;1.60;;;1.25;;
26858;SDS011;14429;48.346;16.338;2022-07-30T08:23:30;1.23;;;1.08;;
26858;SDS011;14429;48.346;16.338;2022-07-30T08:25:56;4.32;;;1.05;;
26858;SDS011;14429;48.346;16.338;2022-07-30T08:28:22;0.95;;;0.95;;
26858;SDS011;14429;48.346;16.338;2022-07-30T08:30:47;1.23;;;0.90;;
26858;SDS011;14429;48.346;16.338;2022-07-30T08:33:14;1.35;;;0.85;;
26858;SDS011;14429;48.346;16.338;2022-07-30T08:35:40;1.17;;;1.08;;
26858;SDS011;14429;48.346;16.338;2022-07-30T08:38:05;1.33;;;1.20;;
26858;SDS011;14429;48.346;16.338;2022-07-30T08:40:31;1.08;;;0.95;;
26858;SDS011;14429;48.346;16.338;2022-07-30T08:42:58;1.05;;;1.00;;
26858;SDS011;14429;48.346;16.338;2022-07-30T08:45:24;3.35;;;1.20;;
26858;SDS011;14429;48.346;16.338;2022-07-30T08:47:50;3.20;;;1.70;;
26858;SDS011;14429;48.346;16.338;2022-07-30T08:50:18;3.35;;;1.10;;
26858;SDS011;14429;48.346;16.338;2022-07-30T08:52:44;1.45;;;1.30;;
26858;SDS011;14429;48.346;16.338;2022-07-30T08:55:11;1.88;;;1.33;;
26858;SDS011;14429;48.346;16.338;2022-07-30T08:57:36;0.98;;;0.98;;
26858;SDS011;14429;48.346;16.338;2022-07-30T09:00:03;1.17;;;1.08;;
26858;SDS011;14429;48.346;16.338;2022-07-30T09:02:30;1.05;;;0.95;;
26858;SDS011;14429;48.346;16.338;2022-07-30T09:04:56;1.10;;;0.98;;
26858;SDS011;14429;48.346;16.338;2022-07-30T09:07:23;1.02;;;0.95;;
26858;SDS011;14429;48.346;16.338;2022-07-30T09:09:49;1.42;;;1.00;;
26858;SDS011;14429;48.346;16.338;2022-07-30T09:12:33;1.15;;;0.98;;
26858;SDS011;14429;48.346;16.338;2022-07-30T09:15:00;1.20;;;1.10;;
26858;SDS011;14429;48.346;16.338;2022-07-30T09:17:27;1.02;;;0.95;;
26858;SDS011;14429;48.346;16.338;2022-07-30T09:20:00;1.17;;;1.00;;
26858;SDS011;14429;48.346;16.338;2022-07-30T09:22:37;1.52;;;1.20;;
26858;SDS011;14429;48.346;16.338;2022-07-30T09:25:06;1.27;;;1.17;;
26858;SDS011;14429;48.346;16.338;2022-07-30T09:27:42;1.23;;;1.00;;
26858;SDS011;14429;48.346;16.338;2022-07-30T09:30:09;1.13;;;1.05;;
26858;SDS011;14429;48.346;16.338;2022-07-30T09:32:45;2.97;;;1.30;;
26858;SDS011;14429;48.346;16.338;2022-07-30T09:35:12;1.52;;;1.00;;
26858;SDS011;14429;48.346;16.338;2022-07-30T09:37:39;1.70;;;1.10;;
26858;SDS011;14429;48.346;16.338;2022-07-30T09:40:10;2.38;;;1.30;;
26858;SDS011;14429;48.346;16.338;2022-07-30T09:42:36;1.73;;;1.30;;
26858;SDS011;14429;48.346;16.338;2022-07-30T09:45:05;1.10;;;1.05;;
26858;SDS011;14429;48.346;16.338;2022-07-30T09:47:32;1.27;;;1.17;;
26858;SDS011;14429;48.346;16.338;2022-07-30T09:50:03;1.92;;;1.17;;
26858;SDS011;14429;48.346;16.338;2022-07-30T09:52:29;1.65;;;1.10;;
26858;SDS011;14429;48.346;16.338;2022-07-30T09:54:56;1.20;;;1.10;;
26858;SDS011;14429;48.346;16.338;2022-07-30T09:57:22;1.20;;;1.10;;
26858;SDS011;14429;48.346;16.338;2022-07-30T09:59:47;0.93;;;0.90;;
26858;SDS011;14429;48.346;16.338;2022-07-30T10:02:13;0.88;;;0.88;;
26858;SDS011;14429;48.346;16.338;2022-07-30T10:04:38;1.30;;;1.20;;
26858;SDS011;14429;48.346;16.338;2022-07-30T10:07:04;2.10;;;1.38;;
26858;SDS011;14429;48.346;16.338;2022-07-30T10:09:41;1.23;;;1.13;;
26858;SDS011;14429;48.346;16.338;2022-07-30T10:12:09;1.42;;;1.33;;
26858;SDS011;14429;48.346;16.338;2022-07-30T10:14:37;1.20;;;1.10;;
26858;SDS011;14429;48.346;16.338;2022-07-30T10:17:07;1.50;;;1.40;;
26858;SDS011;14429;48.346;16.338;2022-07-30T10:19:33;2.38;;;1.55;;
26858;SDS011;14429;48.346;16.338;2022-07-30T10:21:59;1.95;;;1.70;;
26858;SDS011;14429;48.346;16.338;2022-07-30T10:24:25;1.30;;;1.20;;
26858;SDS011;14429;48.346;16.338;2022-07-30T10:26:51;1.40;;;1.30;;
26858;SDS011;14429;48.346;16.338;2022-07-30T10:29:19;2.55;;;1.98;;
26858;SDS011;14429;48.346;16.338;2022-07-30T10:31:45;2.55;;;1.83;;
26858;SDS011;14429;48.346;16.338;2022-07-30T10:34:13;1.80;;;1.35;;
26858;SDS011;14429;48.346;16.338;2022-07-30T10:36:39;2.00;;;1.20;;
26858;SDS011;14429;48.346;16.338;2022-07-30T10:39:07;1.58;;;1.30;;
26858;SDS011;14429;48.346;16.338;2022-07-30T10:41:41;1.20;;;1.10;;
26858;SDS011;14429;48.346;16.338;2022-07-30T10:44:25;3.33;;;1.77;;
26858;SDS011;14429;48.346;16.338;2022-07-30T10:47:02;1.60;;;1.48;;
26858;SDS011;14429;48.346;16.338;2022-07-30T10:49:30;2.45;;;1.77;;
26858;SDS011;14429;48.346;16.338;2022-07-30T10:51:55;2.05;;;1.40;;
26858;SDS011;14429;48.346;16.338;2022-07-30T10:54:40;2.95;;;1.92;;
26858;SDS011;14429;48.346;16.338;2022-07-30T10:57:08;1.50;;;1.40;;
26858;SDS011;14429;48.346;16.338;2022-07-30T11:03:09;2.83;;;2.20;;
26858;SDS011;14429;48.346;16.338;2022-07-30T11:05:38;3.42;;;1.50;;
26858;SDS011;14429;48.346;16.338;2022-07-30T11:14:15;2.28;;;1.58;;
26858;SDS011;14429;48.346;16.338;2022-07-30T11:16:58;1.50;;;1.40;;
26858;SDS011;14429;48.346;16.338;2022-07-30T11:19:25;2.25;;;1.60;;
26858;SDS011;14429;48.346;16.338;2022-07-30T11:24:49;1.95;;;1.60;;
26858;SDS011;14429;48.346;16.338;2022-07-30T11:29:59;3.40;;;1.70;;
26858;SDS011;14429;48.346;16.338;2022-07-30T11:32:25;2.30;;;1.55;;
26858;SDS011;14429;48.346;16.338;2022-07-30T11:37:55;2.10;;;1.65;;
26858;SDS011;14429;48.346;16.338;2022-07-30T11:40:22;3.97;;;2.30;;
26858;SDS011;14429;48.346;16.338;2022-07-30T11:42:48;1.98;;;1.67;;
26858;SDS011;14429;48.346;16.338;2022-07-30T11:45:23;2.35;;;1.90;;
26858;SDS011;14429;48.346;16.338;2022-07-30T11:47:50;3.03;;;2.25;;
26858;SDS011;14429;48.346;16.338;2022-07-30T11:50:18;2.17;;;1.80;;
26858;SDS011;14429;48.346;16.338;2022-07-30T11:52:47;2.00;;;1.58;;
26858;SDS011;14429;48.346;16.338;2022-07-30T11:55:20;2.03;;;1.83;;
26858;SDS011;14429;48.346;16.338;2022-07-30T11:57:46;4.13;;;2.05;;
26858;SDS011;14429;48.346;16.338;2022-07-30T12:00:12;2.90;;;2.20;;
26858;SDS011;14429;48.346;16.338;2022-07-30T12:02:38;2.60;;;1.90;;
26858;SDS011;14429;48.346;16.338;2022-07-30T12:05:04;3.67;;;1.92;;
26858;SDS011;14429;48.346;16.338;2022-07-30T12:07:32;2.15;;;1.90;;
26858;SDS011;14429;48.346;16.338;2022-07-30T12:10:10;3.38;;;2.35;;
26858;SDS011;14429;48.346;16.338;2022-07-30T12:12:36;3.40;;;2.15;;
26858;SDS011;14429;48.346;16.338;2022-07-30T12:15:02;2.80;;;2.08;;
26858;SDS011;14429;48.346;16.338;2022-07-30T12:17:39;3.10;;;2.28;;
26858;SDS011;14429;48.346;16.338;2022-07-30T12:20:12;2.40;;;2.15;;
26858;SDS011;14429;48.346;16.338;2022-07-30T12:22:41;3.22;;;2.13;;
26858;SDS011;14429;48.346;16.338;2022-07-30T12:25:07;2.45;;;1.95;;
26858;SDS011;14429;48.346;16.338;2022-07-30T12:27:33;2.42;;;1.92;;
26858;SDS011;14429;48.346;16.338;2022-07-30T12:29:59;2.70;;;2.42;;
26858;SDS011;14429;48.346;16.338;2022-07-30T12:32:25;3.15;;;2.22;;
26858;SDS011;14429;48.346;16.338;2022-07-30T12:34:54;2.22;;;2.03;;
26858;SDS011;14429;48.346;16.338;2022-07-30T12:37:19;2.50;;;2.13;;
26858;SDS011;14429;48.346;16.338;2022-07-30T12:39:46;2.80;;;2.30;;
26858;SDS011;14429;48.346;16.338;2022-07-30T12:42:16;3.22;;;2.35;;
26858;SDS011;14429;48.346;16.338;2022-07-30T12:44:43;2.17;;;1.85;;
26858;SDS011;14429;48.346;16.338;2022-07-30T12:47:18;4.88;;;2.20;;
26858;SDS011;14429;48.346;16.338;2022-07-30T12:49:45;2.35;;;2.05;;
26858;SDS011;14429;48.346;16.338;2022-07-30T12:52:18;3.47;;;2.78;;
26858;SDS011;14429;48.346;16.338;2022-07-30T12:54:56;2.58;;;2.38;;
26858;SDS011;14429;48.346;16.338;2022-07-30T13:00:17;2.30;;;2.05;;
26858;SDS011;14429;48.346;16.338;2022-07-30T13:02:43;2.65;;;2.22;;
26858;SDS011;14429;48.346;16.338;2022-07-30T13:05:09;3.10;;;2.47;;
26858;SDS011;14429;48.346;16.338;2022-07-30T13:07:34;8.32;;;2.72;;
26858;SDS011;14429;48.346;16.338;2022-07-30T13:10:08;2.33;;;2.10;;
26858;SDS011;14429;48.346;16.338;2022-07-30T13:12:36;3.42;;;2.30;;
26858;SDS011;14429;48.346;16.338;2022-07-30T13:15:02;7.05;;;2.58;;
26858;SDS011;14429;48.346;16.338;2022-07-30T13:17:28;2.38;;;2.17;;
26858;SDS011;14429;48.346;16.338;2022-07-30T13:19:53;2.90;;;2.45;;
26858;SDS011;14429;48.346;16.338;2022-07-30T13:22:18;3.60;;;2.50;;
26858;SDS011;14429;48.346;16.338;2022-07-30T13:24:44;3.08;;;2.20;;
26858;SDS011;14429;48.346;16.338;2022-07-30T13:27:11;3.28;;;2.55;;
26858;SDS011;14429;48.346;16.338;2022-07-30T13:29:36;3.33;;;2.28;;
26858;SDS011;14429;48.346;16.338;2022-07-30T13:32:02;2.47;;;2.08;;
26858;SDS011;14429;48.346;16.338;2022-07-30T13:34:27;3.10;;;2.15;;
26858;SDS011;14429;48.346;16.338;2022-07-30T13:36:53;3.38;;;2.17;;
26858;SDS011;14429;48.346;16.338;2022-07-30T13:39:18;3.47;;;2.67;;
26858;SDS011;14429;48.346;16.338;2022-07-30T13:41:44;6.47;;;2.70;;
26858;SDS011;14429;48.346;16.338;2022-07-30T13:44:11;2.88;;;2.47;;
26858;SDS011;14429;48.346;16.338;2022-07-30T13:46:36;3.10;;;2.60;;
26858;SDS011;14429;48.346;16.338;2022-07-30T13:49:02;2.83;;;2.53;;
26858;SDS011;14429;48.346;16.338;2022-07-30T13:51:27;2.55;;;2.35;;
26858;SDS011;14429;48.346;16.338;2022-07-30T13:53:53;3.20;;;2.40;;
26858;SDS011;14429;48.346;16.338;2022-07-30T13:56:18;3.20;;;2.78;;
26858;SDS011;14429;48.346;16.338;2022-07-30T13:58:44;2.65;;;2.28;;
26858;SDS011;14429;48.346;16.338;2022-07-30T14:01:11;3.00;;;2.55;;
26858;SDS011;14429;48.346;16.338;2022-07-30T14:03:36;4.00;;;2.25;;
26858;SDS011;14429;48.346;16.338;2022-07-30T14:06:02;4.28;;;2.60;;
26858;SDS011;14429;48.346;16.338;2022-07-30T14:08:27;2.90;;;2.10;;
26858;SDS011;14429;48.346;16.338;2022-07-30T14:10:53;9.05;;;2.42;;
26858;SDS011;14429;48.346;16.338;2022-07-30T14:13:18;3.65;;;2.00;;
26858;SDS011;14429;48.346;16.338;2022-07-30T14:15:44;3.53;;;2.67;;
26858;SDS011;14429;48.346;16.338;2022-07-30T14:18:11;2.38;;;1.95;;
26858;SDS011;14429;48.346;16.338;2022-07-30T14:20:36;3.40;;;2.28;;
26858;SDS011;14429;48.346;16.338;2022-07-30T14:23:02;6.93;;;2.63;;
26858;SDS011;14429;48.346;16.338;2022-07-30T14:25:27;2.75;;;2.20;;
26858;SDS011;14429;48.346;16.338;2022-07-30T14:27:53;2.35;;;2.15;;
26858;SDS011;14429;48.346;16.338;2022-07-30T14:30:18;2.60;;;2.33;;
26858;SDS011;14429;48.346;16.338;2022-07-30T14:32:44;2.55;;;2.33;;
26858;SDS011;14429;48.346;16.338;2022-07-30T14:35:11;4.15;;;2.60;;
26858;SDS011;14429;48.346;16.338;2022-07-30T14:37:37;4.07;;;2.83;;
26858;SDS011;14429;48.346;16.338;2022-07-30T14:40:03;2.13;;;1.90;;
26858;SDS011;14429;48.346;16.338;2022-07-30T14:42:30;4.00;;;2.72;;
26858;SDS011;14429;48.346;16.338;2022-07-30T14:44:55;3.00;;;2.25;;
26858;SDS011;14429;48.346;16.338;2022-07-30T14:47:21;3.65;;;2.50;;
26858;SDS011;14429;48.346;16.338;2022-07-30T14:49:46;3.00;;;2.50;;
26858;SDS011;14429;48.346;16.338;2022-07-30T14:52:13;2.22;;;1.95;;
26858;SDS011;14429;48.346;16.338;2022-07-30T14:54:39;5.05;;;2.33;;